Terminal Aerodrome Forecast
Issued by NWS

Current Version | Previous Version | Text Only | Print | Product List | Glossary On
Versions: 1 2 3 4 5 6 7 8 9 10 11 12 13 14 15 16 17 18 19 20
000
FTUS45 KVEF 230600 AAA
TAFVGT
TAF AMD
KVGT 230600Z 2306/2406 12010KT P6SM -RA FEW006 BKN030 OVC040
     FM230900 20022G32KT P6SM VCSH SCT020 OVC040
     FM231400 23024G34KT P6SM VCSH SCT040 BKN060
     FM231800 20024G34KT P6SM FEW050 SCT080 SCT200
     FM232100 34012KT P6SM SCT080 SCT200
     FM240300 30008KT P6SM BKN100=

USA.gov is the U.S. government's official web portal to all federal, state and local government web resources and services.